Time;durP1;ratioP1;P1;durP2;ratioP2;P2;SDS_P1;SDS_P2;PMS_P1;PMS_P2;Temp;Humidity;BMP_temperature;BMP_pressure;BME280_temperature;BME280_humidity;BME280_pressure;Samples;Min_cycle;Max_cycle;Signal;HPM_P1;HPM_P2
2022/06/13 00:01:59;;;;;;;;;;;19.50;99.90;;;;;;4194760;28;20030;-83
2022/06/13 00:04:02;;;;;;;;;;;19.40;99.90;;;;;;4202081;28;19936;-83
2022/06/13 00:06:03;;;;;;;;;;;19.50;99.90;;;;;;4201356;28;20710;-83
2022/06/13 00:08:05;;;;;;;;;;;19.40;99.90;;;;;;4197500;28;20027;-83
2022/06/13 00:10:08;;;;;;;;;;;19.40;99.90;;;;;;4202889;28;19929;-83
2022/06/13 00:12:09;;;;;;;;;;;19.40;99.90;;;;;;4194446;28;20024;-83
2022/06/13 00:14:11;;;;;;;;;;;19.40;99.90;;;;;;4188096;28;19929;-83
2022/06/13 00:16:12;;;;;;;;;;;19.40;99.90;;;;;;4201445;28;20518;-84
2022/06/13 00:18:14;;;;;;;;;;;19.40;99.90;;;;;;4201791;28;19929;-83
2022/06/13 00:20:16;;;;;;;;;;;19.40;99.90;;;;;;4201730;28;19928;-83
2022/06/13 00:22:17;;;;;;;;;;;19.40;99.90;;;;;;4201661;28;19972;-83
2022/06/13 00:24:19;;;;;;;;;;;19.40;99.90;;;;;;4209243;28;19920;-83
2022/06/13 00:26:22;;;;;;;;;;;19.40;99.90;;;;;;4202889;28;19967;-84
2022/06/13 00:28:24;;;;;;;;;;;19.40;99.90;;;;;;4196227;28;20901;-83
2022/06/13 00:30:25;;;;;;;;;;;19.30;99.90;;;;;;4209185;28;20026;-82
2022/06/13 00:32:27;;;;;;;;;;;19.30;99.90;;;;;;4205563;28;20521;-82
2022/06/13 00:34:29;;;;;;;;;;;19.30;99.90;;;;;;4203826;28;19998;-82
2022/06/13 00:36:30;;;;;;;;;;;19.30;99.90;;;;;;4205632;28;19983;-82
2022/06/13 00:38:32;;;;;;;;;;;19.30;99.90;;;;;;4203588;28;19929;-82
2022/06/13 00:40:34;;;;;;;;;;;19.20;99.90;;;;;;4202866;28;19988;-82
2022/06/13 00:42:35;;;;;;;;;;;19.20;99.90;;;;;;4203591;28;19913;-82
2022/06/13 00:44:38;;;;;;;;;;;19.20;99.90;;;;;;4200672;28;19928;-84
2022/06/13 00:46:40;;;;;;;;;;;19.20;99.90;;;;;;4200483;28;19928;-82
2022/06/13 00:48:41;;;;;;;;;;;19.10;99.90;;;;;;4203678;28;19995;-82
2022/06/13 00:50:48;;;;;;;;;;;19.10;99.90;;;;;;4186986;28;20452;-82
2022/06/13 00:52:54;;;;;;;;;;;19.10;99.90;;;;;;4196884;28;19920;-82
2022/06/13 00:54:56;;;;;;;;;;;19.10;99.90;;;;;;4192782;28;20748;-82
2022/06/13 00:56:58;;;;;;;;;;;19.10;99.90;;;;;;4202729;28;19932;-82
2022/06/13 00:59:04;;;;;;;;;;;19.10;99.90;;;;;;4186844;28;19925;-81
2022/06/13 01:01:05;;;;;;;;;;;19.10;99.90;;;;;;4201255;28;19995;-82
2022/06/13 01:03:07;;;;;;;;;;;18.90;99.90;;;;;;4197805;28;19932;-82
2022/06/13 01:05:09;;;;;;;;;;;18.90;99.90;;;;;;4188770;28;20003;-81
2022/06/13 01:07:11;;;;;;;;;;;18.80;99.90;;;;;;4191935;28;20059;-81
2022/06/13 01:09:13;;;;;;;;;;;18.90;99.90;;;;;;4201314;28;19935;-81
2022/06/13 01:11:18;;;;;;;;;;;18.90;99.90;;;;;;4200245;28;19959;-82
2022/06/13 01:13:19;;;;;;;;;;;19.00;99.90;;;;;;4196301;28;19928;-81
2022/06/13 01:15:40;;;;;;;;;;;18.90;99.90;;;;;;4200638;28;19939;-82
2022/06/13 01:17:51;;;;;;;;;;;18.90;99.90;;;;;;4196948;28;19928;-82
2022/06/13 01:20:17;;;;;;;;;;;19.00;99.90;;;;;;4201048;28;19935;-82
2022/06/13 01:22:18;;;;;;;;;;;19.00;99.90;;;;;;4203030;28;19940;-82
2022/06/13 01:24:36;;;;;;;;;;;18.90;99.90;;;;;;4204599;28;19936;-82
2022/06/13 01:26:46;;;;;;;;;;;19.00;99.90;;;;;;4196793;28;19939;-83
2022/06/13 01:28:58;;;;;;;;;;;18.90;99.90;;;;;;4194876;28;20006;-83
2022/06/13 01:31:18;;;;;;;;;;;18.90;99.90;;;;;;4198202;28;19929;-83
2022/06/13 01:33:33;;;;;;;;;;;18.90;99.90;;;;;;4181977;28;20043;-83
2022/06/13 01:35:51;;;;;;;;;;;18.90;99.90;;;;;;4183585;28;20525;-82
2022/06/13 01:38:26;;;;;;;;;;;18.90;99.90;;;;;;4189617;28;20774;-82
2022/06/13 01:40:27;;;;;;;;;;;18.90;99.90;;;;;;4173028;28;19971;-83
2022/06/13 01:42:48;;;;;;;;;;;18.90;99.90;;;;;;4206133;28;19948;-83
2022/06/13 01:44:58;;;;;;;;;;;18.80;99.90;;;;;;4202669;28;19928;-83
2022/06/13 01:47:17;;;;;;;;;;;18.90;99.90;;;;;;4206038;28;20002;-83
2022/06/13 01:49:24;;;;;;;;;;;18.80;99.90;;;;;;4214968;28;19916;-83
2022/06/13 01:51:33;;;;;;;;;;;18.80;99.90;;;;;;4199599;28;19935;-83
2022/06/13 01:53:53;;;;;;;;;;;18.80;99.90;;;;;;4187167;28;19917;-85
2022/06/13 01:55:55;;;;;;;;;;;18.80;99.90;;;;;;4190957;28;20772;-83
2022/06/13 01:58:07;;;;;;;;;;;18.80;99.90;;;;;;4196496;28;19925;-84
2022/06/13 02:00:15;;;;;;;;;;;18.80;99.90;;;;;;4186786;28;20680;-83
2022/06/13 02:02:19;;;;;;;;;;;18.80;99.90;;;;;;4186570;28;19932;-83
2022/06/13 02:04:21;;;;;;;;;;;18.80;99.90;;;;;;4190107;28;19991;-83
2022/06/13 02:06:25;;;;;;;;;;;18.80;99.90;;;;;;4199610;28;19929;-82
2022/06/13 02:08:40;;;;;;;;;;;18.80;99.90;;;;;;4197742;28;19928;-83
2022/06/13 02:10:44;;;;;;;;;;;18.80;99.90;;;;;;4191484;28;19917;-83
2022/06/13 02:12:48;;;;;;;;;;;18.80;99.90;;;;;;4190432;28;19935;-83
2022/06/13 02:14:57;;;;;;;;;;;18.80;99.90;;;;;;4201948;28;19939;-84
2022/06/13 02:17:03;;;;;;;;;;;18.80;99.90;;;;;;4202436;28;20776;-83
2022/06/13 02:19:09;;;;;;;;;;;18.80;99.90;;;;;;4189650;28;20670;-83
2022/06/13 02:21:12;;;;;;;;;;;18.70;99.90;;;;;;4199707;28;19927;-84
2022/06/13 02:23:15;;;;;;;;;;;18.80;99.90;;;;;;4199441;28;19928;-84
2022/06/13 02:25:20;;;;;;;;;;;18.80;99.90;;;;;;4186612;28;19936;-83
2022/06/13 02:27:26;;;;;;;;;;;18.80;99.90;;;;;;4199372;28;19929;-83
2022/06/13 02:29:30;;;;;;;;;;;18.80;99.90;;;;;;4196464;28;19952;-84
2022/06/13 02:31:37;;;;;;;;;;;18.80;99.90;;;;;;4198983;28;20656;-84
2022/06/13 02:33:46;;;;;;;;;;;18.80;99.90;;;;;;4198638;28;19999;-83
2022/06/13 02:35:49;;;;;;;;;;;18.80;99.90;;;;;;4198487;28;19940;-84
2022/06/13 02:37:54;;;;;;;;;;;18.70;99.90;;;;;;4198614;28;19978;-84
2022/06/13 02:40:01;;;;;;;;;;;18.70;99.90;;;;;;4191634;28;19932;-83
2022/06/13 02:42:05;;;;;;;;;;;18.70;99.90;;;;;;4183137;28;20748;-83
2022/06/13 02:44:26;;;;;;;;;;;18.70;99.90;;;;;;4193839;28;19935;-84
2022/06/13 02:46:34;;;;;;;;;;;18.70;99.90;;;;;;4186409;28;19933;-84
2022/06/13 02:48:51;;;;;;;;;;;18.60;99.90;;;;;;4187181;28;21024;-85
2022/06/13 02:51:11;;;;;;;;;;;18.60;99.90;;;;;;4208556;28;19949;-84
2022/06/13 02:53:18;;;;;;;;;;;18.60;99.90;;;;;;4189075;28;19928;-85
2022/06/13 02:55:20;;;;;;;;;;;18.60;99.90;;;;;;4197994;28;20006;-84
2022/06/13 02:57:40;;;;;;;;;;;18.50;99.90;;;;;;4182581;28;19920;-85
2022/06/13 03:00:01;;;;;;;;;;;18.50;99.90;;;;;;4198710;28;19937;-84
2022/06/13 03:02:04;;;;;;;;;;;18.40;99.90;;;;;;4198929;28;19936;-83
2022/06/13 03:04:12;;;;;;;;;;;18.40;99.90;;;;;;4199977;28;19928;-84
2022/06/13 03:06:30;;;;;;;;;;;18.30;99.90;;;;;;4202700;28;19959;-84
2022/06/13 03:08:46;;;;;;;;;;;18.30;99.90;;;;;;4202208;28;20031;-84
2022/06/13 03:11:08;;;;;;;;;;;18.30;99.90;;;;;;4204795;28;19912;-84
2022/06/13 03:13:17;;;;;;;;;;;18.20;99.90;;;;;;4202094;28;19967;-84
2022/06/13 03:15:23;;;;;;;;;;;18.20;99.90;;;;;;4206305;28;19936;-84
2022/06/13 03:17:31;;;;;;;;;;;18.10;99.90;;;;;;4202135;28;20794;-84
2022/06/13 03:19:41;;;;;;;;;;;18.10;99.90;;;;;;4212738;28;19924;-83
2022/06/13 03:21:55;;;;;;;;;;;18.10;99.90;;;;;;4204011;28;19934;-84
2022/06/13 03:23:59;;;;;;;;;;;18.10;99.90;;;;;;4193253;28;19933;-84
2022/06/13 03:26:05;;;;;;;;;;;18.20;99.90;;;;;;4199669;28;19928;-83
2022/06/13 03:28:09;;;;;;;;;;;18.20;99.90;;;;;;4204473;28;21648;-83
2022/06/13 03:30:16;;;;;;;;;;;18.20;99.90;;;;;;4196851;28;20070;-83
2022/06/13 03:32:21;;;;;;;;;;;18.10;99.90;;;;;;4187291;28;19929;-83
2022/06/13 03:34:25;;;;;;;;;;;18.10;99.90;;;;;;4201797;28;20702;-83
2022/06/13 03:36:30;;;;;;;;;;;18.00;99.90;;;;;;4203044;28;20088;-82
2022/06/13 03:38:35;;;;;;;;;;;18.00;99.90;;;;;;4192404;28;19999;-83
2022/06/13 03:40:38;;;;;;;;;;;17.90;99.90;;;;;;4202886;28;19999;-83
2022/06/13 03:42:47;;;;;;;;;;;17.90;99.90;;;;;;4198874;28;19995;-83
2022/06/13 03:44:57;;;;;;;;;;;17.90;99.90;;;;;;4202353;28;19935;-81
2022/06/13 03:47:01;;;;;;;;;;;17.80;99.90;;;;;;4205088;28;19940;-83
2022/06/13 03:49:04;;;;;;;;;;;17.80;99.90;;;;;;4203954;28;19935;-82
2022/06/13 03:51:20;;;;;;;;;;;17.70;99.90;;;;;;4196213;28;19994;-83
2022/06/13 03:53:26;;;;;;;;;;;17.80;99.90;;;;;;4197364;28;19955;-83
2022/06/13 03:55:38;;;;;;;;;;;17.70;99.90;;;;;;4196227;28;19928;-82
2022/06/13 03:58:02;;;;;;;;;;;17.70;99.90;;;;;;4201677;28;20549;-82
2022/06/13 04:00:10;;;;;;;;;;;17.70;99.90;;;;;;4189752;28;19928;-82
2022/06/13 04:02:13;;;;;;;;;;;17.60;99.90;;;;;;4206606;28;19959;-82
2022/06/13 04:04:16;;;;;;;;;;;17.60;99.90;;;;;;4204518;28;19917;-82
2022/06/13 04:06:38;;;;;;;;;;;17.60;99.90;;;;;;4202441;28;19928;-83
2022/06/13 04:08:40;;;;;;;;;;;17.50;99.90;;;;;;4208222;28;19928;-82
2022/06/13 04:10:55;;;;;;;;;;;17.50;99.90;;;;;;4199146;28;19929;-81
2022/06/13 04:13:25;;;;;;;;;;;17.50;99.90;;;;;;4200067;28;19929;-83
2022/06/13 04:15:52;;;;;;;;;;;17.50;99.90;;;;;;4191629;28;19953;-82
2022/06/13 04:18:13;;;;;;;;;;;17.40;99.90;;;;;;4198050;28;19929;-81
2022/06/13 04:20:22;;;;;;;;;;;17.30;99.90;;;;;;4193260;28;20762;-82
2022/06/13 04:22:44;;;;;;;;;;;17.20;99.90;;;;;;4204153;28;19928;-82
2022/06/13 04:24:52;;;;;;;;;;;17.10;99.90;;;;;;4200790;28;19921;-82
2022/06/13 04:26:59;;;;;;;;;;;17.10;99.90;;;;;;4191972;28;19913;-82
2022/06/13 04:29:04;;;;;;;;;;;17.10;99.90;;;;;;4202176;28;19924;-83
2022/06/13 04:31:07;;;;;;;;;;;17.20;99.90;;;;;;4195433;28;19916;-82
2022/06/13 04:33:15;;;;;;;;;;;17.10;99.90;;;;;;4203008;28;19944;-82
2022/06/13 04:35:17;;;;;;;;;;;16.90;99.90;;;;;;4202731;28;20828;-82
2022/06/13 04:37:20;;;;;;;;;;;16.90;99.90;;;;;;4198737;28;19936;-81
2022/06/13 04:39:24;;;;;;;;;;;17.00;99.90;;;;;;4202367;28;20740;-81
2022/06/13 04:41:30;;;;;;;;;;;16.90;99.90;;;;;;4202050;28;19982;-81
2022/06/13 04:43:34;;;;;;;;;;;16.90;99.90;;;;;;4196803;28;19932;-82
2022/06/13 04:45:44;;;;;;;;;;;16.90;99.90;;;;;;4194811;28;19929;-82
2022/06/13 04:47:47;;;;;;;;;;;17.00;99.90;;;;;;4197798;28;20035;-82
2022/06/13 04:49:52;;;;;;;;;;;17.00;99.90;;;;;;4193806;28;20006;-82
2022/06/13 04:51:54;;;;;;;;;;;17.00;99.90;;;;;;4191484;28;19932;-82
2022/06/13 04:53:56;;;;;;;;;;;17.20;99.90;;;;;;4201879;28;19927;-82
2022/06/13 04:55:59;;;;;;;;;;;17.20;99.90;;;;;;4202630;28;19928;-82
2022/06/13 04:58:01;;;;;;;;;;;17.20;99.90;;;;;;4201967;28;20778;-82
2022/06/13 05:00:04;;;;;;;;;;;17.30;99.90;;;;;;4203261;28;20006;-80
2022/06/13 05:02:06;;;;;;;;;;;17.30;99.90;;;;;;4199345;28;20085;-79
2022/06/13 05:04:11;;;;;;;;;;;17.30;99.90;;;;;;4196996;28;19932;-79
2022/06/13 05:06:21;;;;;;;;;;;17.20;99.90;;;;;;4200665;28;19929;-80
2022/06/13 05:08:23;;;;;;;;;;;17.10;99.90;;;;;;4198188;28;19936;-80
2022/06/13 05:10:27;;;;;;;;;;;17.00;99.90;;;;;;4185498;28;19976;-81
2022/06/13 05:12:36;;;;;;;;;;;17.00;99.90;;;;;;4198609;28;19936;-81
2022/06/13 05:14:49;;;;;;;;;;;17.00;99.90;;;;;;4199305;28;19929;-80
2022/06/13 05:16:53;;;;;;;;;;;16.90;99.90;;;;;;4194258;28;19929;-81
2022/06/13 05:19:03;;;;;;;;;;;17.10;99.90;;;;;;4186697;28;20013;-79
2022/06/13 05:21:16;;;;;;;;;;;17.10;99.60;;;;;;4193312;28;20009;-82
2022/06/13 05:23:36;;;;;;;;;;;17.10;99.30;;;;;;4201901;28;20682;-82
2022/06/13 05:25:41;;;;;;;;;;;17.20;99.00;;;;;;4200266;28;19935;-82
2022/06/13 05:27:43;;;;;;;;;;;17.10;99.50;;;;;;4197681;28;20647;-82
2022/06/13 05:29:44;;;;;;;;;;;17.10;99.90;;;;;;4196605;28;20228;-81
2022/06/13 05:31:46;;;;;;;;;;;17.10;98.90;;;;;;4184938;28;20679;-80
2022/06/13 05:33:48;;;;;;;;;;;17.00;99.40;;;;;;4186629;28;19936;-81
2022/06/13 05:35:52;;;;;;;;;;;16.90;99.90;;;;;;4199108;28;19929;-80
2022/06/13 05:37:54;;;;;;;;;;;17.00;99.20;;;;;;4201344;28;19933;-80
2022/06/13 05:39:57;;;;;;;;;;;17.00;98.80;;;;;;4202299;28;19929;-81
2022/06/13 05:42:01;;;;;;;;;;;16.90;98.30;;;;;;4198526;28;19929;-80
2022/06/13 05:44:02;;;;;;;;;;;16.90;99.90;;;;;;4201019;28;20632;-80
2022/06/13 05:46:05;;;;;;;;;;;16.80;98.70;;;;;;4198142;28;19931;-81
2022/06/13 05:48:17;;;;;;;;;;;16.70;97.60;;;;;;4196575;28;20604;-81
2022/06/13 05:50:20;;;;;;;;;;;16.80;98.80;;;;;;4196156;28;20028;-83
2022/06/13 05:52:22;;;;;;;;;;;16.60;98.20;;;;;;4204734;28;19923;-82
2022/06/13 05:54:24;;;;;;;;;;;16.70;97.90;;;;;;4200086;28;19929;-80
2022/06/13 05:56:25;;;;;;;;;;;16.60;97.40;;;;;;4193242;28;19929;-80
2022/06/13 05:58:27;;;;;;;;;;;16.60;98.60;;;;;;4197576;28;20376;-79
2022/06/13 06:00:33;;;;;;;;;;;16.40;96.40;;;;;;4204088;28;19929;-79
2022/06/13 06:02:34;;;;;;;;;;;16.50;99.20;;;;;;4205082;28;19921;-81
2022/06/13 06:04:36;;;;;;;;;;;16.50;98.00;;;;;;4197938;28;19988;-81
2022/06/13 06:06:38;;;;;;;;;;;16.60;97.80;;;;;;4202293;28;19932;-82
2022/06/13 06:08:40;;;;;;;;;;;16.70;97.70;;;;;;4197741;28;19929;-81
2022/06/13 06:10:42;;;;;;;;;;;16.50;96.30;;;;;;4199630;28;19928;-81
2022/06/13 06:12:44;;;;;;;;;;;16.50;96.50;;;;;;4199902;28;20506;-82
2022/06/13 06:14:45;;;;;;;;;;;16.40;96.50;;;;;;4200802;28;20818;-81
2022/06/13 06:16:47;;;;;;;;;;;16.40;95.60;;;;;;4188483;28;20039;-83
2022/06/13 06:18:48;;;;;;;;;;;16.60;96.00;;;;;;4200128;28;20773;-83
2022/06/13 06:20:50;;;;;;;;;;;16.60;96.30;;;;;;4197534;28;19928;-82
2022/06/13 06:22:51;;;;;;;;;;;16.70;97.10;;;;;;4192865;28;20000;-82
2022/06/13 06:24:53;;;;;;;;;;;16.80;97.70;;;;;;4200623;28;19968;-80
2022/06/13 06:26:56;;;;;;;;;;;16.80;94.90;;;;;;4203798;28;19921;-83
2022/06/13 06:28:58;;;;;;;;;;;16.70;94.30;;;;;;4215936;28;19999;-80
2022/06/13 06:31:00;;;;;;;;;;;16.80;95.50;;;;;;4214179;28;19963;-80
2022/06/13 06:33:02;;;;;;;;;;;16.90;94.80;;;;;;4207038;28;19905;-79
2022/06/13 06:35:04;;;;;;;;;;;16.90;93.60;;;;;;4205736;28;20679;-80
2022/06/13 06:37:05;;;;;;;;;;;16.90;93.40;;;;;;4193992;28;19987;-78
2022/06/13 06:39:07;;;;;;;;;;;16.70;93.10;;;;;;4197049;28;19960;-79
2022/06/13 06:41:09;;;;;;;;;;;16.70;93.60;;;;;;4196546;28;21140;-83
2022/06/13 06:43:10;;;;;;;;;;;16.80;93.40;;;;;;4198212;28;19928;-83
2022/06/13 06:45:12;;;;;;;;;;;16.80;92.90;;;;;;4197173;28;19986;-78
2022/06/13 06:47:13;;;;;;;;;;;16.70;91.80;;;;;;4223972;22;20035;-79
2022/06/13 06:49:15;;;;;;;;;;;16.50;91.10;;;;;;4220267;28;20961;-79
2022/06/13 06:51:17;;;;;;;;;;;16.60;90.30;;;;;;4217319;28;19920;-79
2022/06/13 06:53:20;;;;;;;;;;;16.70;90.10;;;;;;4219937;28;19931;-78
2022/06/13 07:00:05;;;;;;;;;;;17.10;91.50;;;;;;4210879;28;20656;-77
2022/06/13 07:02:07;;;;;;;;;;;17.20;90.60;;;;;;4205352;28;20040;-77
2022/06/13 07:04:09;;;;;;;;;;;17.20;90.70;;;;;;4207093;28;19950;-77
2022/06/13 07:06:11;;;;;;;;;;;17.10;88.20;;;;;;4204421;28;19932;-77
2022/06/13 07:08:14;;;;;;;;;;;17.30;89.70;;;;;;4206470;28;19935;-78
2022/06/13 07:10:15;;;;;;;;;;;17.40;89.70;;;;;;4216484;28;19986;-74
2022/06/13 07:12:17;;;;;;;;;;;17.30;88.60;;;;;;4223585;28;19928;-78
2022/06/13 07:14:19;;;;;;;;;;;17.30;86.90;;;;;;4208518;28;19924;-78
2022/06/13 07:16:20;;;;;;;;;;;17.30;86.00;;;;;;4221235;28;19922;-78
2022/06/13 07:18:22;;;;;;;;;;;17.30;86.80;;;;;;4206123;28;19990;-75
2022/06/13 07:20:24;;;;;;;;;;;17.40;86.00;;;;;;4206684;28;20002;-77
2022/06/13 07:22:30;;;;;;;;;;;17.30;87.40;;;;;;4214266;28;19929;-78
2022/06/13 07:24:32;;;;;;;;;;;17.40;87.40;;;;;;4206960;28;19916;-77
2022/06/13 07:26:33;;;;;;;;;;;17.50;87.20;;;;;;4210485;28;19935;-75
2022/06/13 07:28:35;;;;;;;;;;;17.50;85.10;;;;;;4218956;28;19932;-77
2022/06/13 07:30:36;;;;;;;;;;;17.50;84.40;;;;;;4210325;28;20526;-77
2022/06/13 07:32:38;;;;;;;;;;;17.50;86.40;;;;;;4210038;28;20075;-77
2022/06/13 07:34:42;;;;;;;;;;;17.60;87.00;;;;;;4218482;28;20521;-77
2022/06/13 07:36:44;;;;;;;;;;;17.70;86.30;;;;;;4213029;28;19928;-78
2022/06/13 07:38:47;;;;;;;;;;;17.70;85.00;;;;;;4220190;28;19935;-78
2022/06/13 07:40:52;;;;;;;;;;;17.50;82.90;;;;;;4216957;28;19929;-78
2022/06/13 07:42:56;;;;;;;;;;;17.50;83.00;;;;;;4212319;28;20074;-78
2022/06/13 07:44:58;;;;;;;;;;;17.60;84.10;;;;;;4220743;28;19928;-78
2022/06/13 07:47:00;;;;;;;;;;;17.60;83.50;;;;;;4211417;28;20709;-78
2022/06/13 07:49:02;;;;;;;;;;;17.70;84.10;;;;;;4213453;28;19920;-78
2022/06/13 07:51:07;;;;;;;;;;;17.80;85.10;;;;;;4211719;28;20616;-78
2022/06/13 07:53:09;;;;;;;;;;;17.90;83.70;;;;;;4211067;28;20035;-78
2022/06/13 07:55:10;;;;;;;;;;;17.80;81.20;;;;;;4214902;28;19966;-78
2022/06/13 07:57:12;;;;;;;;;;;17.90;82.30;;;;;;4215238;28;20031;-78
2022/06/13 07:59:17;;;;;;;;;;;17.90;81.30;;;;;;4215003;28;19994;-78
2022/06/13 08:01:18;;;;;;;;;;;17.80;81.30;;;;;;4216885;28;19928;-78
2022/06/13 08:03:25;;;;;;;;;;;17.90;81.60;;;;;;4210066;28;20771;-78
2022/06/13 08:05:27;;;;;;;;;;;17.90;81.40;;;;;;4211179;28;19929;-76
2022/06/13 08:07:28;;;;;;;;;;;18.00;81.50;;;;;;4209791;28;19924;-79
2022/06/13 08:09:30;;;;;;;;;;;18.00;80.80;;;;;;4206148;28;19920;-78
2022/06/13 08:11:36;;;;;;;;;;;18.10;80.10;;;;;;4208016;28;20055;-78
2022/06/13 08:13:39;;;;;;;;;;;18.10;79.80;;;;;;4214641;28;19916;-78
2022/06/13 08:15:41;;;;;;;;;;;17.90;78.30;;;;;;4214499;28;19999;-77
2022/06/13 08:17:43;;;;;;;;;;;18.00;79.00;;;;;;4213294;28;20698;-79
2022/06/13 08:19:45;;;;;;;;;;;18.00;78.10;;;;;;4230255;28;20026;-78
2022/06/13 08:21:46;;;;;;;;;;;17.90;78.60;;;;;;4215654;28;19946;-78
2022/06/13 08:23:48;;;;;;;;;;;18.00;80.10;;;;;;4211506;28;19934;-78
2022/06/13 08:25:50;;;;;;;;;;;18.20;80.30;;;;;;4205767;28;19931;-78
2022/06/13 08:27:52;;;;;;;;;;;18.20;79.40;;;;;;4209997;28;19928;-78
2022/06/13 08:29:54;;;;;;;;;;;18.30;79.90;;;;;;4206994;28;20010;-78
2022/06/13 08:31:56;;;;;;;;;;;18.20;77.00;;;;;;4211025;28;20677;-78
2022/06/13 08:33:57;;;;;;;;;;;18.20;77.90;;;;;;4219655;28;19929;-78
2022/06/13 08:35:59;;;;;;;;;;;18.20;77.80;;;;;;4211153;28;19951;-79
2022/06/13 08:38:03;;;;;;;;;;;18.30;78.30;;;;;;4215185;28;20601;-78
2022/06/13 08:40:05;;;;;;;;;;;18.30;78.40;;;;;;4218273;28;20031;-80
2022/06/13 08:42:11;;;;;;;;;;;18.40;77.80;;;;;;4219266;28;20003;-79
2022/06/13 08:44:29;;;;;;;;;;;18.40;77.70;;;;;;4208726;28;19936;-78
2022/06/13 08:46:39;;;;;;;;;;;18.40;76.60;;;;;;4217238;28;20972;-79
2022/06/13 08:48:44;;;;;;;;;;;18.40;76.80;;;;;;4211661;28;19935;-77
2022/06/13 08:51:00;;;;;;;;;;;18.40;78.00;;;;;;4216355;28;19932;-78
2022/06/13 08:53:08;;;;;;;;;;;18.40;77.50;;;;;;4213529;28;20583;-77
2022/06/13 08:55:17;;;;;;;;;;;18.40;78.00;;;;;;4214893;28;19932;-76
2022/06/13 08:57:19;;;;;;;;;;;18.40;77.90;;;;;;4213101;28;19931;-77
2022/06/13 08:59:23;;;;;;;;;;;18.50;78.30;;;;;;4214570;28;19932;-77
2022/06/13 09:01:29;;;;;;;;;;;18.60;79.10;;;;;;4215039;28;19928;-77
2022/06/13 09:03:35;;;;;;;;;;;18.60;78.00;;;;;;4216095;28;19935;-77
2022/06/13 09:05:56;;;;;;;;;;;18.60;79.10;;;;;;4217723;28;19927;-78
2022/06/13 09:08:09;;;;;;;;;;;18.60;78.80;;;;;;4216972;28;19932;-78
2022/06/13 09:10:16;;;;;;;;;;;18.70;79.20;;;;;;4217089;28;19928;-77
2022/06/13 09:12:22;;;;;;;;;;;18.60;78.50;;;;;;4217152;28;19969;-77
2022/06/13 09:14:35;;;;;;;;;;;18.50;77.80;;;;;;4229022;28;19966;-77
2022/06/13 09:16:39;;;;;;;;;;;18.50;77.00;;;;;;4217741;28;19959;-79
2022/06/13 09:18:45;;;;;;;;;;;18.50;77.50;;;;;;4218134;28;19929;-79
2022/06/13 09:20:53;;;;;;;;;;;18.50;77.10;;;;;;4216500;28;19920;-79
2022/06/13 09:23:04;;;;;;;;;;;18.50;77.00;;;;;;4216464;28;19932;-78
2022/06/13 09:25:08;;;;;;;;;;;18.60;77.70;;;;;;4214355;28;19929;-78
2022/06/13 09:27:13;;;;;;;;;;;18.70;78.50;;;;;;4215096;28;19924;-78
2022/06/13 09:29:44;;;;;;;;;;;18.80;77.10;;;;;;4212734;28;20781;-80
2022/06/13 09:31:55;;;;;;;;;;;18.80;76.30;;;;;;4214766;28;19951;-81
2022/06/13 09:34:12;;;;;;;;;;;18.80;75.10;;;;;;4218575;28;20615;-81
2022/06/13 09:36:20;;;;;;;;;;;18.90;74.20;;;;;;4218262;28;19926;-80
2022/06/13 09:38:23;;;;;;;;;;;18.90;73.40;;;;;;4217715;28;19938;-81
2022/06/13 09:40:45;;;;;;;;;;;18.80;72.10;;;;;;4213722;28;19995;-82
2022/06/13 09:42:46;;;;;;;;;;;18.80;71.80;;;;;;4198033;28;20798;-79
2022/06/13 09:44:48;;;;;;;;;;;18.80;71.10;;;;;;4213938;28;19928;-80
2022/06/13 09:46:58;;;;;;;;;;;18.80;73.00;;;;;;4213812;28;19935;-81
2022/06/13 09:49:12;;;;;;;;;;;18.90;72.80;;;;;;4215054;28;19935;-80
2022/06/13 09:51:13;;;;;;;;;;;19.00;74.10;;;;;;4212412;28;19968;-80
2022/06/13 09:53:28;;;;;;;;;;;19.00;73.70;;;;;;4219760;28;19912;-78
2022/06/13 09:55:36;;;;;;;;;;;19.10;73.40;;;;;;4226425;28;19928;-79
2022/06/13 09:57:37;;;;;;;;;;;19.10;70.90;;;;;;4215776;28;19979;-80
2022/06/13 09:59:42;;;;;;;;;;;19.10;69.10;;;;;;4214107;28;19990;-78
2022/06/13 10:01:52;;;;;;;;;;;19.10;71.10;;;;;;4219285;28;19936;-80
2022/06/13 10:04:01;;;;;;;;;;;19.10;72.50;;;;;;4217844;28;19932;-79
2022/06/13 10:06:15;;;;;;;;;;;19.20;71.10;;;;;;4227011;28;19916;-79
2022/06/13 10:08:36;;;;;;;;;;;19.20;69.30;;;;;;4220030;28;19936;-80
2022/06/13 10:11:13;;;;;;;;;;;19.20;70.90;;;;;;4216815;28;19928;-79
2022/06/13 10:13:16;;;;;;;;;;;19.20;70.90;;;;;;4205567;28;19930;-78
2022/06/13 10:15:24;;;;;;;;;;;19.20;69.70;;;;;;4220258;28;19920;-78
2022/06/13 10:17:37;;;;;;;;;;;19.30;68.60;;;;;;4224394;28;19935;-78
2022/06/13 10:19:47;;;;;;;;;;;19.30;69.70;;;;;;4221938;28;19917;-77
2022/06/13 10:21:55;;;;;;;;;;;19.30;67.80;;;;;;4223567;28;19928;-78
2022/06/13 10:24:08;;;;;;;;;;;19.30;68.40;;;;;;4222877;28;19974;-78
2022/06/13 10:26:30;;;;;;;;;;;19.30;66.30;;;;;;4225212;28;20027;-78
2022/06/13 10:28:50;;;;;;;;;;;19.30;66.80;;;;;;4193674;28;19917;-78
2022/06/13 10:30:54;;;;;;;;;;;19.40;67.10;;;;;;4222575;28;19924;-78
2022/06/13 10:33:07;;;;;;;;;;;19.40;65.20;;;;;;4220989;28;19978;-78
2022/06/13 10:35:40;;;;;;;;;;;19.40;64.20;;;;;;4220962;28;19929;-78
2022/06/13 10:37:56;;;;;;;;;;;19.40;65.90;;;;;;4175851;28;19950;-78
2022/06/13 10:39:59;;;;;;;;;;;19.40;67.00;;;;;;4219018;28;19921;-78
2022/06/13 10:42:07;;;;;;;;;;;19.40;65.20;;;;;;4221274;28;19991;-79
2022/06/13 10:44:11;;;;;;;;;;;19.40;64.00;;;;;;4223034;28;20700;-79
2022/06/13 10:46:16;;;;;;;;;;;19.40;65.00;;;;;;4219476;28;19921;-78
2022/06/13 10:48:24;;;;;;;;;;;19.40;64.10;;;;;;4216761;28;20035;-78
2022/06/13 10:50:31;;;;;;;;;;;19.40;63.50;;;;;;4220351;28;20675;-78
2022/06/13 10:52:35;;;;;;;;;;;19.40;63.20;;;;;;4219905;28;19923;-78
2022/06/13 10:54:38;;;;;;;;;;;19.30;62.30;;;;;;4219212;28;19925;-78
2022/06/13 10:56:46;;;;;;;;;;;19.40;61.70;;;;;;4224873;28;19951;-77
2022/06/13 10:58:49;;;;;;;;;;;19.40;62.90;;;;;;4217360;28;19928;-78
2022/06/13 11:01:20;;;;;;;;;;;19.50;63.50;;;;;;4215065;28;20027;-78
2022/06/13 11:03:22;;;;;;;;;;;19.50;64.40;;;;;;4204967;28;19928;-78
2022/06/13 11:05:25;;;;;;;;;;;19.60;64.00;;;;;;4229139;28;19943;-77
2022/06/13 11:07:27;;;;;;;;;;;19.60;63.30;;;;;;4223236;28;19934;-78
2022/06/13 11:09:28;;;;;;;;;;;19.60;61.10;;;;;;4225211;28;19970;-78
2022/06/13 11:11:32;;;;;;;;;;;19.60;62.40;;;;;;4222193;28;20050;-78
2022/06/13 11:13:37;;;;;;;;;;;19.70;62.50;;;;;;4218245;28;20696;-78
2022/06/13 11:22:56;;;;;;;;;;;19.70;62.00;;;;;;4188291;28;19920;-78
2022/06/13 11:24:58;;;;;;;;;;;19.80;60.00;;;;;;4216191;28;19966;-76
2022/06/13 11:29:21;;;;;;;;;;;19.90;61.50;;;;;;4212193;28;19936;-76
2022/06/13 11:31:26;;;;;;;;;;;20.00;59.70;;;;;;4213324;28;19928;-76
2022/06/13 11:33:32;;;;;;;;;;;20.10;61.40;;;;;;4215600;28;19967;-75
2022/06/13 11:35:37;;;;;;;;;;;20.20;61.70;;;;;;4214642;28;20031;-74
2022/06/13 11:37:39;;;;;;;;;;;20.40;59.50;;;;;;4214375;28;19932;-76
2022/06/13 11:39:40;;;;;;;;;;;20.50;60.20;;;;;;4215399;28;20546;-76
2022/06/13 11:41:43;;;;;;;;;;;20.70;58.70;;;;;;4215377;28;19928;-75
2022/06/13 11:43:45;;;;;;;;;;;20.70;57.60;;;;;;4213030;28;19928;-78
2022/06/13 11:45:57;;;;;;;;;;;20.70;55.70;;;;;;4212867;28;19986;-76
2022/06/13 11:47:59;;;;;;;;;;;20.70;53.60;;;;;;4214383;28;19954;-77
2022/06/13 11:50:11;;;;;;;;;;;20.80;54.70;;;;;;4212742;28;19932;-75
2022/06/13 11:52:13;;;;;;;;;;;20.70;54.80;;;;;;4212431;28;19928;-76
2022/06/13 11:54:20;;;;;;;;;;;20.80;57.50;;;;;;4212187;28;19929;-76
2022/06/13 11:56:23;;;;;;;;;;;20.90;54.20;;;;;;4205332;28;20694;-76
2022/06/13 11:58:30;;;;;;;;;;;20.90;55.20;;;;;;4206000;28;19944;-77
2022/06/13 12:00:34;;;;;;;;;;;20.80;56.50;;;;;;4209618;28;20747;-76
2022/06/13 12:02:39;;;;;;;;;;;20.90;55.50;;;;;;4206364;28;20727;-77
2022/06/13 12:04:44;;;;;;;;;;;20.70;56.20;;;;;;4203242;28;19913;-76
2022/06/13 12:06:47;;;;;;;;;;;20.70;55.80;;;;;;4215767;28;19924;-76
2022/06/13 12:08:50;;;;;;;;;;;20.60;56.50;;;;;;4204115;28;19928;-73
2022/06/13 12:10:57;;;;;;;;;;;20.60;57.80;;;;;;4201045;28;19937;-74
2022/06/13 12:12:59;;;;;;;;;;;20.60;57.30;;;;;;4207041;28;19935;-73
2022/06/13 12:15:00;;;;;;;;;;;20.50;56.00;;;;;;4208590;28;19993;-72
2022/06/13 12:17:06;;;;;;;;;;;20.50;54.50;;;;;;4210055;28;19978;-72
2022/06/13 12:19:22;;;;;;;;;;;20.50;55.20;;;;;;4211941;28;19928;-71
2022/06/13 12:21:30;;;;;;;;;;;20.50;56.10;;;;;;4209950;28;19928;-72
2022/06/13 12:23:52;;;;;;;;;;;20.60;56.10;;;;;;4210297;28;20565;-72
2022/06/13 12:26:07;;;;;;;;;;;20.70;55.00;;;;;;4210711;28;20018;-73
2022/06/13 12:28:11;;;;;;;;;;;20.70;56.60;;;;;;4218219;28;19936;-72
2022/06/13 12:30:19;;;;;;;;;;;20.60;56.00;;;;;;4209884;28;19935;-73